Time;durP1;ratioP1;P1;durP2;ratioP2;P2;SDS_P1;SDS_P2;PMS_P1;PMS_P2;Temp;Humidity;BMP_temperature;BMP_pressure;BME280_temperature;BME280_humidity;BME280_pressure;Samples;Min_cycle;Max_cycle;Signal;HPM_P1;HPM_P2
2020/12/06 00:01:39;;;;;;;93.45;58.35;;;;;;;3.72;68.36;102556.16;4979457;28;20124;-84
2020/12/06 00:04:09;;;;;;;93.88;62.85;;;;;;;4.03;68.10;102590.47;5004173;28;20041;-83
2020/12/06 00:06:37;;;;;;;80.75;57.47;;;;;;;3.31;68.46;102501.91;4975491;28;20093;-83
2020/12/06 00:09:07;;;;;;;84.22;60.83;;;;;;;3.60;67.69;102517.19;4971780;28;20038;-84
2020/12/06 00:11:34;;;;;;;90.22;60.40;;;;;;;3.16;67.61;102449.63;4997033;28;20041;-83
2020/12/06 00:14:01;;;;;;;86.93;59.20;;;;;;;3.48;67.89;102511.13;4997724;28;20117;-82
2020/12/06 00:16:29;;;;;;;86.40;59.05;;;;;;;4.10;67.92;102586.91;4973558;28;20463;-82
2020/12/06 00:18:55;;;;;;;89.70;59.65;;;;;;;2.98;67.78;102390.28;4995358;28;20025;-82
2020/12/06 00:21:23;;;;;;;80.80;58.00;;;;;;;3.67;67.91;102533.84;4997140;28;20034;-80
2020/12/06 00:23:51;;;;;;;92.97;59.55;;;;;;;3.44;68.04;102473.25;4991764;28;20029;-83
2020/12/06 00:26:23;;;;;;;86.47;58.25;;;;;;;3.91;67.69;102543.25;4982256;28;20053;-84
2020/12/06 00:28:51;;;;;;;88.28;60.65;;;;;;;3.33;67.52;102456.06;4987586;28;20053;-80
2020/12/06 00:31:18;;;;;;;86.57;57.97;;;;;;;4.07;68.26;102583.63;5003023;28;20021;-80
2020/12/06 00:33:46;;;;;;;89.90;58.60;;;;;;;2.63;67.97;102367.44;4969636;28;20031;-80
2020/12/06 00:36:16;;;;;;;81.38;54.53;;;;;;;3.91;67.27;102596.19;4976204;28;20460;-78
2020/12/06 00:38:44;;;;;;;85.72;56.35;;;;;;;3.55;67.25;102483.94;4995689;28;20018;-81
2020/12/06 00:41:16;;;;;;;86.88;58.92;;;;;;;3.12;67.10;102409.88;4986594;28;20026;-77
2020/12/06 00:43:43;;;;;;;90.20;59.35;;;;;;;4.12;67.27;102578.53;4986846;28;20036;-84
2020/12/06 00:46:10;;;;;;;80.93;52.95;;;;;;;2.71;66.44;102355.69;4990064;28;20034;-87
2020/12/06 00:48:38;;;;;;;80.10;52.97;;;;;;;2.01;66.95;102237.88;4987378;28;20030;-83
2020/12/06 00:51:05;;;;;;;86.65;54.85;;;;;;;3.08;66.37;102387.44;4993948;28;20037;-86
2020/12/06 00:53:31;;;;;;;73.40;52.25;;;;;;;3.35;66.08;102423.91;4992181;28;20030;-84
2020/12/06 00:55:58;;;;;;;90.15;58.50;;;;;;;3.36;66.15;102432.97;4982572;28;20142;-94
2020/12/06 00:58:25;;;;;;;89.13;59.55;;;;;;;3.56;66.49;102463.75;4992779;28;20034;-79
2020/12/06 01:00:52;;;;;;;95.25;62.40;;;;;;;3.49;66.39;102479.97;4993564;28;20093;-85
2020/12/06 01:03:20;;;;;;;83.43;58.53;;;;;;;3.23;66.19;102397.81;4988403;28;20053;-84
2020/12/06 01:05:47;;;;;;;83.03;58.28;;;;;;;3.76;66.39;102521.06;4984923;28;20112;-85
2020/12/06 01:08:14;;;;;;;90.70;60.35;;;;;;;2.36;66.63;102269.97;4987440;28;20025;-86
2020/12/06 01:10:40;;;;;;;93.70;61.08;;;;;;;4.34;66.52;102595.44;4976933;28;20025;-92
2020/12/06 01:13:07;;;;;;;86.55;56.95;;;;;;;3.06;65.15;102331.16;5001665;28;20026;-90
2020/12/06 01:15:34;;;;;;;84.40;58.50;;;;;;;4.76;64.43;102578.13;4976640;28;20026;-92
2020/12/06 01:18:02;;;;;;;83.85;56.78;;;;;;;5.01;63.46;102591.97;4985750;28;20041;-90
2020/12/06 01:20:29;;;;;;;78.30;54.33;;;;;;;2.75;62.96;102190.25;4987467;28;20030;-83
2020/12/06 01:22:56;;;;;;;79.00;56.13;;;;;;;5.29;62.77;102599.88;4990471;28;20385;-83
2020/12/06 01:25:22;;;;;;;75.20;53.05;;;;;;;4.56;63.51;102527.31;4985100;28;20430;-85
2020/12/06 01:28:09;;;;;;;76.78;51.45;;;;;;;4.03;63.06;102423.25;4997017;28;20026;-85
2020/12/06 01:30:35;;;;;;;75.90;53.30;;;;;;;4.14;62.59;102414.72;4988725;28;20029;-84
2020/12/06 01:33:07;;;;;;;69.60;49.20;;;;;;;5.43;62.15;102578.28;4976485;28;20042;-85
2020/12/06 01:35:35;;;;;;;65.55;48.20;;;;;;;4.08;61.50;102363.28;4978202;28;20050;-83
2020/12/06 01:38:02;;;;;;;69.88;50.88;;;;;;;4.91;61.64;102517.09;4997790;28;20552;-84
2020/12/06 01:40:30;;;;;;;64.28;46.60;;;;;;;4.39;61.21;102395.59;4990016;28;20563;-94
2020/12/06 01:42:56;;;;;;;69.82;47.58;;;;;;;4.97;60.40;102460.66;4983329;28;20805;-89
2020/12/06 01:45:23;;;;;;;68.28;46.63;;;;;;;4.41;60.37;102337.84;4978264;28;20035;-87
2020/12/06 01:47:50;;;;;;;64.05;45.45;;;;;;;5.95;60.25;102576.22;4985828;28;20049;-87
2020/12/06 01:50:18;;;;;;;61.88;45.80;;;;;;;5.77;59.91;102524.16;4983029;28;20089;-89
2020/12/06 01:52:47;;;;;;;60.28;42.88;;;;;;;4.95;60.27;102405.97;4985762;28;20545;-88
2020/12/06 01:55:14;;;;;;;67.55;48.53;;;;;;;5.17;61.32;102508.72;4995647;28;20026;-88
2020/12/06 01:57:41;;;;;;;69.90;49.35;;;;;;;4.82;61.57;102439.41;4973694;28;20073;-86
2020/12/06 02:00:09;;;;;;;79.63;54.47;;;;;;;4.85;61.78;102389.66;4985842;28;20101;-88
2020/12/06 02:02:36;;;;;;;81.97;60.88;;;;;;;5.24;61.44;102467.72;4989093;28;20034;-85
2020/12/06 02:05:06;;;;;;;82.15;59.10;;;;;;;5.80;61.37;102541.19;5001575;28;20038;-84
2020/12/06 02:07:34;;;;;;;69.03;46.10;;;;;;;4.91;61.37;102377.13;4998657;28;20047;-85
2020/12/06 02:10:01;;;;;;;84.43;59.60;;;;;;;4.95;61.46;102356.56;4988678;28;20030;-83
2020/12/06 02:12:28;;;;;;;103.10;75.60;;;;;;;3.91;61.63;102228.97;4989994;28;20525;-82
2020/12/06 02:14:55;;;;;;;112.40;82.85;;;;;;;4.33;61.32;102254.53;4997811;28;20031;-81
2020/12/06 02:17:21;;;;;;;112.50;82.28;;;;;;;5.20;60.81;102373.84;4981591;28;20031;-81
2020/12/06 02:19:48;;;;;;;88.63;66.10;;;;;;;6.33;60.31;102518.72;4974260;28;20035;-82
2020/12/06 02:22:15;;;;;;;75.60;56.83;;;;;;;6.27;59.44;102500.19;4981498;28;20511;-84
2020/12/06 02:24:42;;;;;;;81.63;53.90;;;;;;;6.47;58.83;102506.09;4993254;28;20076;-80
2020/12/06 02:27:09;;;;;;;67.20;51.25;;;;;;;4.89;59.25;102236.47;4999505;28;20422;-83
2020/12/06 02:29:35;;;;;;;69.72;47.80;;;;;;;4.72;59.60;102258.47;4978569;28;20820;-85
2020/12/06 02:32:02;;;;;;;63.20;44.90;;;;;;;4.35;59.60;102166.63;4975306;28;20038;-81
2020/12/06 02:34:29;;;;;;;66.80;46.03;;;;;;;5.97;58.81;102415.53;4970443;28;20131;-83
2020/12/06 02:36:56;;;;;;;52.50;38.58;;;;;;;6.23;57.38;102446.56;4977493;28;20034;-80
2020/12/06 02:39:23;;;;;;;47.92;37.03;;;;;;;4.87;57.74;102203.69;4980816;28;20570;-82
2020/12/06 02:41:50;;;;;;;53.20;36.08;;;;;;;6.33;57.32;102419.69;4996335;28;20512;-83
2020/12/06 02:44:17;;;;;;;53.05;39.08;;;;;;;6.42;57.05;102446.09;4976667;28;20054;-83
2020/12/06 02:46:44;;;;;;;45.72;36.00;;;;;;;5.07;57.11;102195.91;4998380;28;20037;-83
2020/12/06 02:49:11;;;;;;;46.72;33.00;;;;;;;6.76;56.80;102467.94;4980239;28;20030;-84
2020/12/06 02:51:38;;;;;;;46.28;31.00;;;;;;;6.96;56.43;102463.66;4982400;28;20037;-85
2020/12/06 02:54:05;;;;;;;42.08;31.15;;;;;;;5.28;56.08;102213.69;4957207;28;20042;-84
2020/12/06 02:56:32;;;;;;;36.30;29.02;;;;;;;6.09;56.00;102332.66;4982720;28;20484;-83
2020/12/06 02:58:59;;;;;;;46.08;31.08;;;;;;;6.81;55.92;102458.09;4998675;28;20036;-82
2020/12/06 03:01:33;;;;;;;38.75;27.88;;;;;;;5.84;56.09;102266.81;4988324;28;20063;-83
2020/12/06 03:04:00;;;;;;;33.67;25.40;;;;;;;6.25;55.79;102340.81;4973456;28;20048;-80
2020/12/06 03:06:27;;;;;;;35.63;27.05;;;;;;;6.65;55.87;102401.25;4982251;28;20022;-83
2020/12/06 03:08:54;;;;;;;38.35;28.08;;;;;;;6.53;55.21;102359.53;4998145;28;20531;-79
2020/12/06 03:11:27;;;;;;;36.30;27.15;;;;;;;6.85;55.10;102385.09;4996796;28;20026;-81
2020/12/06 03:13:54;;;;;;;36.97;29.02;;;;;;;7.19;54.97;102418.72;4999256;28;20026;-81
2020/12/06 03:16:21;;;;;;;42.33;31.95;;;;;;;6.10;55.71;102250.00;5002953;28;20091;-86
2020/12/06 03:18:48;;;;;;;38.10;28.48;;;;;;;7.12;55.63;102409.47;4981570;28;20485;-83
2020/12/06 03:21:15;;;;;;;38.97;30.35;;;;;;;6.98;55.62;102392.75;4983411;28;20062;-81
2020/12/06 03:23:42;;;;;;;38.33;27.17;;;;;;;6.92;54.87;102401.75;4986515;28;20056;-88
2020/12/06 03:26:10;;;;;;;41.13;27.27;;;;;;;6.27;54.66;102285.63;4977667;28;20084;-82
2020/12/06 03:28:37;;;;;;;34.20;27.08;;;;;;;6.18;54.55;102273.81;4993208;28;20026;-82
2020/12/06 03:31:04;;;;;;;45.05;30.52;;;;;;;7.02;54.62;102422.66;4996145;28;20061;-82
2020/12/06 03:33:30;;;;;;;41.53;28.92;;;;;;;7.16;53.79;102412.72;4980275;28;20436;-83
2020/12/06 03:35:57;;;;;;;37.42;29.08;;;;;;;5.97;53.67;102216.72;4999271;28;20026;-81
2020/12/06 03:38:25;;;;;;;39.30;26.20;;;;;;;7.15;53.43;102387.09;4976249;28;20034;-86
2020/12/06 03:40:51;;;;;;;40.72;26.33;;;;;;;7.19;52.48;102385.66;4992087;28;20042;-84
2020/12/06 03:43:18;;;;;;;40.78;27.90;;;;;;;5.71;52.43;102111.59;4976624;28;20079;-84
2020/12/06 03:45:45;;;;;;;41.13;27.55;;;;;;;7.40;52.70;102381.31;4994537;28;20034;-85
2020/12/06 03:48:12;;;;;;;40.92;28.55;;;;;;;7.00;52.81;102314.59;4979597;28;20065;-85
2020/12/06 03:50:39;;;;;;;38.88;26.75;;;;;;;6.88;53.99;102306.78;4982263;28;20076;-84
2020/12/06 03:53:05;;;;;;;34.75;26.92;;;;;;;5.64;53.46;102101.53;4978805;28;20026;-84
2020/12/06 03:55:32;;;;;;;38.78;25.33;;;;;;;5.89;53.41;102149.75;4986680;28;20038;-85
2020/12/06 03:57:59;;;;;;;45.80;26.55;;;;;;;6.76;53.18;102291.75;4984645;28;20029;-84
2020/12/06 04:00:26;;;;;;;35.58;25.83;;;;;;;6.22;53.37;102235.78;4999200;28;20034;-85
2020/12/06 04:02:53;;;;;;;35.85;25.92;;;;;;;6.61;52.93;102322.84;4979665;28;20038;-84
2020/12/06 04:05:23;;;;;;;45.08;28.00;;;;;;;6.55;52.63;102285.06;4981001;28;20026;-85
2020/12/06 04:07:51;;;;;;;40.03;27.85;;;;;;;6.97;51.93;102308.41;4989858;28;20391;-85
2020/12/06 04:10:19;;;;;;;41.72;29.27;;;;;;;7.08;51.52;102309.00;4994738;28;20030;-84
2020/12/06 04:12:46;;;;;;;48.20;30.10;;;;;;;6.61;51.77;102222.91;4975225;28;20078;-84
2020/12/06 04:15:15;;;;;;;31.92;24.85;;;;;;;6.19;51.09;102134.41;4998781;28;20037;-84
2020/12/06 04:17:42;;;;;;;41.78;29.90;;;;;;;6.41;51.23;102162.91;4992703;28;20492;-85
2020/12/06 04:20:09;;;;;;;38.60;30.55;;;;;;;6.48;53.11;102286.84;4984527;28;20066;-86
2020/12/06 04:22:36;;;;;;;45.95;30.80;;;;;;;6.21;54.45;102294.59;4975479;28;20037;-84
2020/12/06 04:25:04;;;;;;;39.03;27.73;;;;;;;6.66;53.68;102352.56;4982516;28;20109;-84
2020/12/06 04:27:30;;;;;;;42.28;29.67;;;;;;;6.79;53.75;102352.78;4987003;28;20034;-85
2020/12/06 04:29:57;;;;;;;40.22;27.13;;;;;;;5.20;53.15;102073.69;4987685;28;20385;-83
2020/12/06 04:32:24;;;;;;;39.45;25.48;;;;;;;5.99;51.81;102159.63;4973839;28;20058;-83
2020/12/06 04:34:51;;;;;;;31.85;23.05;;;;;;;7.25;51.78;102401.44;4983131;28;20037;-84
2020/12/06 04:37:18;;;;;;;37.78;26.73;;;;;;;5.79;52.88;102230.75;4995811;28;20018;-85
2020/12/06 04:39:45;;;;;;;41.55;28.95;;;;;;;6.35;53.61;102299.31;4986060;28;20065;-87
2020/12/06 04:42:12;;;;;;;53.70;27.90;;;;;;;5.56;54.17;102191.22;4980653;28;20392;-85
2020/12/06 04:44:39;;;;;;;45.28;28.77;;;;;;;5.14;54.43;102132.91;4984682;28;20061;-88
2020/12/06 04:47:08;;;;;;;46.65;27.00;;;;;;;5.95;54.31;102238.88;4980279;28;20030;-86
2020/12/06 04:49:46;;;;;;;40.70;25.25;;;;;;;6.47;53.66;102309.91;5000805;28;20041;-86
2020/12/06 04:52:16;;;;;;;38.47;25.23;;;;;;;5.64;54.75;102231.50;4979394;28;20030;-86
2020/12/06 04:54:50;;;;;;;37.63;26.05;;;;;;;5.97;54.07;102291.81;4982485;28;20515;-86
2020/12/06 04:57:19;;;;;;;41.92;26.15;;;;;;;5.30;54.33;102144.84;4980690;28;20052;-87
2020/12/06 04:59:47;;;;;;;37.30;27.02;;;;;;;7.02;53.49;102331.78;4983527;28;20026;-86
2020/12/06 05:02:20;;;;;;;43.38;27.17;;;;;;;6.09;53.19;102231.78;4980077;28;20044;-85
2020/12/06 05:04:48;;;;;;;43.15;27.17;;;;;;;6.18;54.89;102290.31;4981919;28;20045;-86
2020/12/06 05:07:20;;;;;;;36.63;25.90;;;;;;;6.52;55.14;102365.22;4987555;28;20482;-84
2020/12/06 05:09:49;;;;;;;36.05;27.80;;;;;;;5.61;55.37;102216.25;4982407;28;20042;-85
2020/12/06 05:12:16;;;;;;;35.08;25.13;;;;;;;5.79;54.50;102160.16;4984633;28;20041;-86
2020/12/06 05:14:43;;;;;;;42.13;27.67;;;;;;;6.55;54.38;102291.41;4991318;28;20038;-87
2020/12/06 05:17:11;;;;;;;50.50;29.98;;;;;;;6.91;55.89;102389.03;4984937;28;20022;-80
2020/12/06 05:19:37;;;;;;;46.85;30.77;;;;;;;6.79;56.86;102391.31;4983120;28;20038;-81
2020/12/06 05:22:04;;;;;;;43.55;28.20;;;;;;;6.23;56.69;102292.53;5009184;28;20036;-82
2020/12/06 05:24:31;;;;;;;47.08;28.13;;;;;;;5.86;56.56;102265.59;4987497;28;20041;-80
2020/12/06 05:26:58;;;;;;;40.47;27.52;;;;;;;6.26;55.57;102330.66;4984722;28;20484;-85
2020/12/06 05:29:25;;;;;;;46.33;28.25;;;;;;;5.95;55.97;102273.78;4983400;28;20551;-87
2020/12/06 05:31:54;;;;;;;34.95;25.70;;;;;;;5.75;55.67;102246.75;4976495;28;20048;-86
2020/12/06 05:34:21;;;;;;;36.25;25.73;;;;;;;5.80;55.81;102227.81;4974887;28;20053;-84
2020/12/06 05:36:48;;;;;;;27.80;18.70;;;;;;;7.05;52.71;102378.22;4986359;28;20137;-89
2020/12/06 05:39:15;;;;;;;29.27;18.42;;;;;;;6.02;51.62;102234.41;4983645;28;20066;-94
2020/12/06 05:41:47;;;;;;;27.55;16.63;;;;;;;6.90;51.25;102373.50;4981321;28;20065;-86
2020/12/06 05:44:19;;;;;;;28.20;18.17;;;;;;;6.55;51.40;102342.84;4991308;28;20476;-88
2020/12/06 05:46:47;;;;;;;25.92;17.50;;;;;;;6.66;51.28;102339.66;4982229;28;20037;-91
2020/12/06 05:49:23;;;;;;;32.20;17.13;;;;;;;6.87;51.34;102406.06;4975977;28;20396;-91
2020/12/06 05:51:53;;;;;;;28.50;16.52;;;;;;;6.84;51.91;102399.91;4978614;28;20031;-89
2020/12/06 05:54:24;;;;;;;30.67;19.13;;;;;;;6.63;51.34;102340.03;4984212;28;20018;-89
2020/12/06 05:56:54;;;;;;;27.63;17.23;;;;;;;5.97;51.63;102222.22;4978321;28;20026;-87
2020/12/06 05:59:22;;;;;;;28.00;17.42;;;;;;;7.06;51.68;102390.94;4976784;28;20629;-88
2020/12/06 06:01:53;;;;;;;28.02;18.30;;;;;;;6.84;51.89;102388.88;4972083;28;20026;-90
2020/12/06 06:04:22;;;;;;;33.85;17.98;;;;;;;6.49;50.86;102324.31;4978605;28;20046;-86
2020/12/06 06:06:53;;;;;;;29.30;18.08;;;;;;;6.35;51.39;102292.97;4977833;28;20033;-87
2020/12/06 06:09:21;;;;;;;30.83;18.58;;;;;;;7.04;50.93;102382.88;4976984;28;20027;-90
2020/12/06 06:12:05;;;;;;;38.95;20.33;;;;;;;6.93;50.98;102386.94;4976615;28;20161;-87
2020/12/06 06:14:33;;;;;;;25.92;18.35;;;;;;;6.04;50.80;102241.63;4985346;28;20057;-87
2020/12/06 06:17:01;;;;;;;29.02;17.80;;;;;;;5.40;50.66;102172.09;4974072;28;20308;-88
2020/12/06 06:19:28;;;;;;;28.60;19.23;;;;;;;7.05;49.91;102375.44;4978671;28;20109;-85
2020/12/06 06:21:56;;;;;;;33.28;19.08;;;;;;;6.00;49.75;102230.09;4980344;28;20057;-89
2020/12/06 06:24:27;;;;;;;27.63;18.35;;;;;;;5.99;50.16;102242.13;4981176;28;20034;-91
2020/12/06 06:26:55;;;;;;;28.10;17.38;;;;;;;5.94;50.99;102244.59;4985203;28;20026;-90
2020/12/06 06:29:22;;;;;;;29.38;16.98;;;;;;;5.67;51.12;102230.31;4983125;28;20043;-87
2020/12/06 06:31:53;;;;;;;24.48;16.05;;;;;;;5.44;50.51;102187.16;5002976;28;20030;-85
2020/12/06 06:34:29;;;;;;;24.85;15.88;;;;;;;6.29;49.25;102344.91;4983504;28;20030;-91
2020/12/06 06:37:00;;;;;;;26.52;15.93;;;;;;;5.93;49.91;102251.13;4977050;28;20172;-90
2020/12/06 06:39:27;;;;;;;25.38;15.00;;;;;;;6.53;49.65;102358.66;4977134;28;20108;-89
2020/12/06 06:42:10;;;;;;;29.33;17.10;;;;;;;6.70;50.12;102349.25;4984038;28;20061;-93
2020/12/06 06:44:42;;;;;;;31.75;19.42;;;;;;;5.74;49.84;102184.56;4994759;28;20361;-90
2020/12/06 06:47:12;;;;;;;31.38;20.63;;;;;;;6.35;50.64;102310.31;4994391;28;20022;-91
2020/12/06 06:49:55;;;;;;;28.05;18.92;;;;;;;6.93;50.71;102403.44;4979300;28;20062;-88
2020/12/06 06:52:24;;;;;;;26.02;18.20;;;;;;;6.92;49.72;102406.38;4980863;28;20073;-88
2020/12/06 06:54:53;;;;;;;31.92;18.00;;;;;;;6.51;49.57;102358.00;4987750;28;20036;-95
2020/12/06 06:57:22;;;;;;;30.23;17.83;;;;;;;6.79;49.19;102388.56;4985817;28;20033;-96
2020/12/06 06:59:54;;;;;;;33.40;18.98;;;;;;;6.49;49.39;102332.56;4978364;28;20026;-91
2020/12/06 07:02:34;;;;;;;36.75;19.90;;;;;;;6.76;49.99;102379.84;4993465;28;20446;-93
2020/12/06 07:05:05;;;;;;;;;;;;;;;6.81;49.01;102380.13;4989157;28;20046;-89
2020/12/06 07:07:51;;;;;;;31.20;19.75;;;;;;;5.22;49.70;102143.00;4971590;28;19918;-89
2020/12/06 07:10:23;;;;;;;30.65;19.83;;;;;;;5.73;49.32;102215.84;4979831;28;20030;-91
2020/12/06 07:12:52;;;;;;;30.50;19.38;;;;;;;6.08;49.66;102251.22;4991865;28;20424;-89
2020/12/06 07:15:24;;;;;;;31.73;20.45;;;;;;;6.19;49.73;102314.06;4992017;28;20026;-90
2020/12/06 07:17:55;;;;;;;35.47;20.17;;;;;;;6.47;50.57;102316.25;4991516;28;20054;-89
2020/12/06 07:20:25;;;;;;;29.95;18.85;;;;;;;4.92;50.61;102054.97;4991093;28;20096;-90
2020/12/06 07:22:55;;;;;;;24.98;15.52;;;;;;;6.08;52.56;102293.31;4987705;28;20060;-87
2020/12/06 07:25:23;;;;;;;;;;;;;;;6.55;51.85;102367.63;4987343;28;20049;-94
2020/12/06 07:27:51;;;;;;;29.15;18.38;;;;;;;6.47;51.84;102375.94;4988590;28;20025;-93
2020/12/06 07:30:19;;;;;;;36.67;21.02;;;;;;;6.52;52.26;102385.34;4985476;28;20034;-88
2020/12/06 07:32:47;;;;;;;36.78;23.35;;;;;;;6.49;53.20;102382.97;5001777;28;20080;-94
2020/12/06 07:35:15;;;;;;;38.97;24.20;;;;;;;5.90;53.39;102277.06;4986927;28;20033;-90
2020/12/06 07:37:45;;;;;;;38.28;23.50;;;;;;;6.48;53.30;102369.38;4980149;28;20026;-90
2020/12/06 07:40:12;;;;;;;38.83;23.30;;;;;;;6.62;52.60;102373.22;4983316;28;20030;-92
2020/12/06 07:42:40;;;;;;;42.08;24.17;;;;;;;6.61;53.29;102361.38;4996929;28;20280;-90
2020/12/06 07:45:08;;;;;;;49.40;22.85;;;;;;;6.53;52.98;102369.69;4990299;28;20122;-91
2020/12/06 07:47:36;;;;;;;48.38;26.02;;;;;;;5.30;53.30;102195.13;4986806;28;20026;-90
2020/12/06 07:50:04;;;;;;;43.85;25.63;;;;;;;6.07;53.07;102316.34;4986663;28;20168;-91
2020/12/06 07:52:33;;;;;;;42.50;27.40;;;;;;;6.23;53.87;102358.56;4985100;28;20049;-90
2020/12/06 07:55:06;;;;;;;42.15;24.50;;;;;;;6.21;53.55;102322.09;4987816;28;20087;-90
2020/12/06 07:57:46;;;;;;;48.17;27.98;;;;;;;6.22;54.21;102357.69;5000710;28;20026;-91
2020/12/06 08:00:20;;;;;;;41.78;26.98;;;;;;;6.27;54.17;102352.50;4982500;28;20653;-90
2020/12/06 08:02:58;;;;;;;41.50;27.67;;;;;;;6.22;54.19;102359.56;4974554;28;20205;-90
2020/12/06 08:05:29;;;;;;;47.90;28.60;;;;;;;5.67;54.00;102260.53;4979520;28;20046;-89
2020/12/06 08:08:09;;;;;;;48.10;29.65;;;;;;;6.22;54.75;102351.31;4985124;28;21413;-89
2020/12/06 08:10:37;;;;;;;48.33;29.40;;;;;;;6.09;55.48;102352.78;5001103;28;20053;-91
2020/12/06 08:13:09;;;;;;;51.85;28.63;;;;;;;5.64;55.39;102259.00;4986563;28;20029;-90
2020/12/06 08:15:36;;;;;;;43.67;29.05;;;;;;;6.14;56.09;102366.81;4990077;28;20033;-89
2020/12/06 08:18:12;;;;;;;48.92;30.52;;;;;;;6.13;56.00;102348.63;4981343;28;20036;-90
2020/12/06 08:20:39;;;;;;;49.33;28.88;;;;;;;5.10;56.19;102200.19;4983882;28;20034;-91
2020/12/06 08:23:06;;;;;;;45.55;28.25;;;;;;;6.18;55.75;102356.31;4986537;28;20030;-90
2020/12/06 08:25:35;;;;;;;46.28;28.58;;;;;;;6.01;55.80;102289.56;4984778;28;20112;-89
2020/12/06 08:28:03;;;;;;;51.50;31.92;;;;;;;5.25;56.91;102194.81;4981944;28;20026;-90
2020/12/06 08:30:31;;;;;;;46.38;29.50;;;;;;;5.92;57.25;102346.47;4982541;28;20069;-91
2020/12/06 08:33:04;;;;;;;56.55;29.77;;;;;;;5.92;57.30;102351.09;4982781;28;20030;-89
2020/12/06 08:35:48;;;;;;;47.95;30.20;;;;;;;5.50;57.08;102260.63;4984081;28;20032;-90
2020/12/06 08:38:23;;;;;;;49.17;29.17;;;;;;;4.79;56.86;102157.94;4978845;28;20026;-90
2020/12/06 08:41:03;;;;;;;53.00;29.92;;;;;;;5.20;57.12;102210.97;4984190;28;20034;-90
2020/12/06 08:43:54;;;;;;;51.15;30.75;;;;;;;5.98;56.37;102311.91;5000598;28;20027;-90
2020/12/06 08:46:23;;;;;;;48.08;31.50;;;;;;;4.69;57.12;102143.56;4981811;28;20471;-90
2020/12/06 08:48:55;;;;;;;49.45;30.20;;;;;;;5.36;56.53;102266.84;5000661;28;20564;-90
2020/12/06 08:51:27;;;;;;;54.05;33.03;;;;;;;5.86;56.74;102353.56;4984609;28;20034;-90
2020/12/06 08:53:54;;;;;;;57.42;31.30;;;;;;;5.61;56.69;102284.09;4980994;28;20045;-90
2020/12/06 08:56:36;;;;;;;47.20;30.58;;;;;;;5.90;56.90;102387.03;4985648;28;20033;-88
2020/12/06 08:59:11;;;;;;;56.50;33.05;;;;;;;5.92;56.55;102367.59;4983226;28;20062;-90
2020/12/06 09:01:55;;;;;;;56.00;34.42;;;;;;;5.97;56.72;102371.53;4969339;28;20390;-89
2020/12/06 09:04:22;;;;;;;54.55;30.02;;;;;;;5.96;56.18;102358.84;4979014;28;20078;-90
2020/12/06 09:06:52;;;;;;;51.33;30.98;;;;;;;4.66;57.23;102168.63;4989540;28;20026;-88
2020/12/06 09:09:19;;;;;;;55.78;31.63;;;;;;;6.07;56.43;102368.56;4985944;28;20034;-89
2020/12/06 09:11:46;;;;;;;54.92;31.15;;;;;;;4.99;56.39;102187.72;4986088;28;20034;-88
2020/12/06 09:14:13;;;;;;;51.50;31.30;;;;;;;5.71;57.25;102341.59;4988775;28;20056;-89
2020/12/06 09:16:40;;;;;;;50.78;29.77;;;;;;;5.65;57.28;102307.41;4988814;28;20038;-88
2020/12/06 09:19:07;;;;;;;48.20;32.25;;;;;;;5.38;57.88;102290.38;4987351;28;20130;-90
2020/12/06 09:21:34;;;;;;;59.38;31.80;;;;;;;5.96;58.01;102385.47;4988234;28;20057;-89
2020/12/06 09:24:00;;;;;;;64.95;31.77;;;;;;;5.61;58.33;102334.41;4991160;28;20507;-88
2020/12/06 09:26:27;;;;;;;52.03;32.47;;;;;;;5.14;57.19;102239.13;4986737;28;20026;-89
2020/12/06 09:28:54;;;;;;;53.10;32.55;;;;;;;5.24;57.70;102253.53;4991214;28;20120;-90
2020/12/06 09:31:22;;;;;;;55.30;31.10;;;;;;;6.06;57.26;102390.78;5012992;28;20030;-88
2020/12/06 09:33:49;;;;;;;52.63;31.02;;;;;;;5.82;57.68;102387.91;4986241;28;20092;-89
2020/12/06 09:36:18;;;;;;;53.78;33.40;;;;;;;5.86;57.01;102381.03;4991970;28;20057;-90
2020/12/06 09:38:45;;;;;;;60.20;33.05;;;;;;;5.69;56.91;102335.41;4997007;28;20034;-88
2020/12/06 09:41:12;;;;;;;53.85;33.67;;;;;;;5.53;57.13;102317.09;4993817;28;20030;-88
2020/12/06 09:43:45;;;;;;;62.00;35.97;;;;;;;5.97;57.42;102373.44;4993903;28;20372;-86
2020/12/06 09:46:13;;;;;;;55.30;33.65;;;;;;;6.07;57.16;102393.31;4981955;28;20032;-89
2020/12/06 09:48:41;;;;;;;65.03;37.58;;;;;;;5.60;57.99;102349.19;4995929;28;20023;-87
2020/12/06 09:51:09;;;;;;;61.35;37.60;;;;;;;5.91;58.07;102401.63;4996763;28;20396;-89
2020/12/06 09:53:36;;;;;;;66.47;36.03;;;;;;;6.01;58.11;102399.53;4990631;28;20033;-91
2020/12/06 09:56:03;;;;;;;65.25;38.42;;;;;;;5.63;58.48;102338.88;4993068;28;20036;-91
2020/12/06 09:58:30;;;;;;;63.60;37.80;;;;;;;5.95;58.33;102398.34;4997315;28;20100;-87
2020/12/06 10:00:57;;;;;;;59.45;35.35;;;;;;;5.29;57.97;102256.59;4991102;28;20026;-85
2020/12/06 10:03:24;;;;;;;63.58;36.97;;;;;;;5.33;58.32;102281.81;4980149;28;20136;-83
2020/12/06 10:05:51;;;;;;;65.25;37.05;;;;;;;5.00;58.61;102229.75;4979427;28;20085;-85
2020/12/06 10:08:18;;;;;;;59.85;36.92;;;;;;;5.20;58.25;102232.94;4997766;28;20015;-85
2020/12/06 10:10:45;;;;;;;63.28;38.58;;;;;;;6.00;58.30;102386.84;4980113;28;20026;-84
2020/12/06 10:13:12;;;;;;;66.50;37.60;;;;;;;5.19;58.70;102275.16;4980085;28;20034;-85
2020/12/06 10:15:39;;;;;;;71.35;40.83;;;;;;;4.66;58.58;102165.88;5000924;28;20034;-85
2020/12/06 10:18:06;;;;;;;64.93;38.70;;;;;;;5.64;58.85;102357.09;4988513;28;20022;-86
2020/12/06 10:20:33;;;;;;;61.97;38.97;;;;;;;5.55;59.25;102357.13;4988729;28;20045;-85
2020/12/06 10:23:00;;;;;;;62.83;38.33;;;;;;;5.43;57.93;102289.84;4990910;28;20081;-86
2020/12/06 10:25:27;;;;;;;75.50;41.65;;;;;;;4.48;58.25;102155.09;4981627;28;20030;-85
2020/12/06 10:27:54;;;;;;;70.70;41.78;;;;;;;4.81;57.79;102203.56;4983426;28;20121;-86
2020/12/06 10:30:21;;;;;;;77.65;40.05;;;;;;;5.17;57.89;102241.53;4966948;28;20804;-86
2020/12/06 10:32:47;;;;;;;66.47;39.53;;;;;;;5.14;58.12;102218.03;4962727;28;20034;-85
2020/12/06 10:35:14;;;;;;;69.82;42.33;;;;;;;5.52;57.90;102291.50;4974089;28;20061;-86
2020/12/06 10:37:41;;;;;;;67.88;39.03;;;;;;;4.99;57.49;102197.84;4973588;28;20030;-84
2020/12/06 10:40:08;;;;;;;78.07;44.25;;;;;;;4.20;57.92;102078.72;4955327;28;20381;-86
2020/12/06 10:42:35;;;;;;;71.05;40.70;;;;;;;4.33;58.31;102100.97;4959250;28;20114;-85
2020/12/06 10:45:01;;;;;;;65.55;40.88;;;;;;;5.86;57.83;102371.94;4960849;28;20050;-88
2020/12/06 10:47:28;;;;;;;67.63;42.67;;;;;;;4.72;57.79;102158.81;4960532;28;20038;-86
2020/12/06 10:49:55;;;;;;;67.90;40.67;;;;;;;5.10;58.28;102244.13;4959906;28;20118;-85
2020/12/06 10:52:22;;;;;;;76.57;44.85;;;;;;;5.51;59.15;102333.75;4957787;28;20038;-89
2020/12/06 10:54:51;;;;;;;76.85;42.42;;;;;;;4.68;58.45;102190.41;4962065;28;20140;-86
2020/12/06 10:57:19;;;;;;;77.40;45.07;;;;;;;4.76;58.47;102198.59;4957434;28;20034;-85
2020/12/06 10:59:46;;;;;;;78.85;43.45;;;;;;;5.69;58.19;102328.03;4973072;28;20097;-84
2020/12/06 11:02:13;;;;;;;83.68;43.50;;;;;;;5.76;58.57;102352.88;4950904;28;20034;-84
2020/12/06 11:04:40;;;;;;;73.40;42.33;;;;;;;5.24;58.44;102297.47;4962856;28;20046;-86
2020/12/06 11:07:06;;;;;;;75.70;44.03;;;;;;;5.02;59.30;102286.19;4974447;28;20030;-86
2020/12/06 11:09:33;;;;;;;79.25;44.53;;;;;;;5.80;58.40;102392.75;4991095;28;20481;-89
2020/12/06 11:12:00;;;;;;;70.47;44.83;;;;;;;5.73;58.33;102400.84;4974691;28;21554;-85
2020/12/06 11:14:27;;;;;;;70.30;39.90;;;;;;;4.71;57.75;102254.00;4975005;28;20042;-88
2020/12/06 11:16:54;;;;;;;78.40;43.20;;;;;;;5.77;57.25;102409.59;4974224;28;20030;-88
2020/12/06 11:19:21;;;;;;;75.50;45.08;;;;;;;4.57;57.87;102219.03;4978011;28;20058;-87
2020/12/06 11:21:54;;;;;;;76.80;43.53;;;;;;;6.05;56.55;102400.06;4996106;28;20034;-86
2020/12/06 11:24:21;;;;;;;72.75;42.58;;;;;;;4.71;57.53;102234.81;4977029;28;20069;-88